createdAt,value
2019-05-07T00:00:35.643Z,100.00
2019-05-07T00:03:04.158Z,100.00
2019-05-07T00:05:33.286Z,99.99
2019-05-07T00:08:02.986Z,100.00
2019-05-07T00:10:33.087Z,100.00
2019-05-07T00:13:02.378Z,100.00
2019-05-07T00:15:32.781Z,100.00
2019-05-07T00:18:03.183Z,100.00
2019-05-07T00:20:32.724Z,100.00
2019-05-07T00:23:02.987Z,100.00
2019-05-07T00:25:32.846Z,100.00
2019-05-07T00:28:02.790Z,100.00
2019-05-07T00:30:33.149Z,100.00
2019-05-07T00:33:02.796Z,100.00
2019-05-07T00:35:35.746Z,100.00
2019-05-07T00:38:05.875Z,100.00
2019-05-07T00:40:36.073Z,100.00
2019-05-07T00:43:08.969Z,100.00
2019-05-07T00:45:45.299Z,100.00
2019-05-07T00:48:13.759Z,100.00
2019-05-07T00:50:43.889Z,100.00
2019-05-07T00:53:13.065Z,100.00
2019-05-07T00:55:42.299Z,100.00
2019-05-07T00:58:13.054Z,100.00
2019-05-07T01:00:42.072Z,100.00
2019-05-07T01:03:12.806Z,100.00
2019-05-07T01:05:43.206Z,100.00
2019-05-07T01:08:13.191Z,100.00
2019-05-07T01:10:42.115Z,100.00
2019-05-07T01:13:12.644Z,100.00
2019-05-07T01:15:42.987Z,100.00
2019-05-07T01:18:12.344Z,100.00
2019-05-07T01:20:42.349Z,100.00
2019-05-07T01:23:13.410Z,100.00
2019-05-07T01:25:43.066Z,100.00
2019-05-07T01:28:13.177Z,100.00
2019-05-07T01:30:43.184Z,100.00
2019-05-07T01:33:16.299Z,100.00
2019-05-07T01:35:46.431Z,100.00
2019-05-07T01:38:16.536Z,100.00
2019-05-07T01:40:45.023Z,100.00
2019-05-07T01:43:13.512Z,100.00
2019-05-07T01:45:49.384Z,100.00
2019-05-07T01:48:15.446Z,100.00
2019-05-07T01:50:43.891Z,100.00
2019-05-07T01:53:12.421Z,100.00
2019-05-07T01:55:42.820Z,100.00
2019-05-07T01:58:12.517Z,100.00
2019-05-07T02:00:42.384Z,100.00
2019-05-07T02:03:29.067Z,100.00
2019-05-07T02:06:02.231Z,100.00
2019-05-07T02:08:42.250Z,100.00
2019-05-07T02:11:21.834Z,100.00
2019-05-07T02:13:52.835Z,100.00
2019-05-07T02:16:21.822Z,100.00
2019-05-07T02:18:52.665Z,100.00
2019-05-07T02:21:22.086Z,100.00
2019-05-07T02:23:52.335Z,100.00
2019-05-07T02:26:22.622Z,100.00
2019-05-07T02:28:51.856Z,100.00
2019-05-07T02:31:23.326Z,100.00
2019-05-07T02:33:53.824Z,100.00
2019-05-07T02:36:23.692Z,100.00
2019-05-07T02:38:59.057Z,100.00
2019-05-07T02:41:33.111Z,100.00
2019-05-07T02:44:04.218Z,100.00
2019-05-07T02:46:39.401Z,100.00
2019-05-07T02:49:15.241Z,100.00
2019-05-07T02:51:57.119Z,100.00
2019-05-07T02:54:33.225Z,100.00
2019-05-07T02:57:03.114Z,100.00
2019-05-07T02:59:33.594Z,100.00
2019-05-07T03:02:03.583Z,100.00
2019-05-07T03:04:33.393Z,100.00
2019-05-07T03:07:04.000Z,100.00
2019-05-07T03:09:32.942Z,100.00
2019-05-07T03:12:03.970Z,100.00
2019-05-07T03:14:32.397Z,100.00
2019-05-07T03:17:03.062Z,100.00
2019-05-07T03:19:33.152Z,100.00
2019-05-07T03:22:03.940Z,100.00
2019-05-07T03:24:34.485Z,100.00
2019-05-07T03:27:03.452Z,100.00
2019-05-07T03:29:33.328Z,100.00
2019-05-07T03:32:20.158Z,100.00
2019-05-07T03:35:07.610Z,100.00
2019-05-07T03:37:37.070Z,100.00
2019-05-07T03:40:07.227Z,100.00
2019-05-07T03:42:35.740Z,100.00
2019-05-07T03:45:07.084Z,100.00
2019-05-07T03:47:40.144Z,100.00
2019-05-07T03:50:14.222Z,100.00
2019-05-07T03:52:42.803Z,100.00
2019-05-07T03:55:14.129Z,100.00
2019-05-07T03:57:43.610Z,100.00
2019-05-07T04:00:13.115Z,100.00
2019-05-07T04:02:43.732Z,100.00
2019-05-07T04:05:13.990Z,100.00
2019-05-07T04:07:43.444Z,100.00
2019-05-07T04:10:14.961Z,100.00
2019-05-07T04:12:44.276Z,100.00
2019-05-07T04:15:14.637Z,100.00
2019-05-07T04:17:43.126Z,100.00
2019-05-07T04:20:13.431Z,100.00
2019-05-07T04:22:43.431Z,100.00
2019-05-07T04:25:16.913Z,100.00
2019-05-07T04:27:52.688Z,100.00
2019-05-07T04:30:23.316Z,100.00
2019-05-07T04:32:53.118Z,100.00
2019-05-07T04:35:38.754Z,100.00
2019-05-07T04:38:07.532Z,100.00
2019-05-07T04:40:36.031Z,100.00
2019-05-07T04:43:04.539Z,100.00
2019-05-07T04:45:34.010Z,100.00
2019-05-07T04:48:03.195Z,100.00
2019-05-07T04:50:42.671Z,100.00
2019-05-07T04:53:03.751Z,100.00
2019-05-07T04:55:33.519Z,100.00
2019-05-07T04:58:02.958Z,100.00
2019-05-07T05:00:33.600Z,100.00
2019-05-07T05:03:04.123Z,100.00
2019-05-07T05:05:33.107Z,100.00
2019-05-07T05:08:03.884Z,100.00
2019-05-07T05:10:33.745Z,100.00
2019-05-07T05:13:03.240Z,100.00
2019-05-07T05:15:32.192Z,100.00
2019-05-07T05:18:02.613Z,100.00
2019-05-07T05:20:48.985Z,100.00
2019-05-07T05:23:22.778Z,100.00
2019-05-07T05:25:52.234Z,100.00
2019-05-07T05:28:21.845Z,100.00
2019-05-07T05:30:52.769Z,100.00
2019-05-07T05:33:23.494Z,100.00
2019-05-07T05:35:52.533Z,100.00
2019-05-07T05:38:22.132Z,100.00
2019-05-07T05:40:52.046Z,100.00
2019-05-07T05:43:22.529Z,100.00
2019-05-07T05:45:53.896Z,100.00
2019-05-07T05:48:22.581Z,100.00
2019-05-07T05:50:53.676Z,100.00
2019-05-07T05:53:40.196Z,100.00
2019-05-07T05:56:11.848Z,100.00
2019-05-07T05:58:56.873Z,100.00
2019-05-07T06:01:27.372Z,100.00
2019-05-07T06:04:12.542Z,100.00
2019-05-07T06:06:42.753Z,100.00
2019-05-07T06:09:28.879Z,100.00
2019-05-07T06:12:15.216Z,100.00
2019-05-07T06:14:45.358Z,100.00
2019-05-07T06:17:15.568Z,100.00
2019-05-07T06:20:02.756Z,100.00
2019-05-07T06:22:48.686Z,100.00
2019-05-07T06:25:19.240Z,100.00
2019-05-07T06:27:47.701Z,100.00
2019-05-07T06:30:17.603Z,100.00
2019-05-07T06:32:46.060Z,100.00
2019-05-07T06:35:14.572Z,100.00
2019-05-07T06:37:43.997Z,100.00
2019-05-07T06:40:14.676Z,100.00
2019-05-07T06:42:47.735Z,100.00
2019-05-07T06:45:18.358Z,100.00
2019-05-07T06:47:46.797Z,100.00
2019-05-07T06:50:15.293Z,100.00
2019-05-07T06:52:43.803Z,100.00
2019-05-07T06:55:13.204Z,100.00
2019-05-07T06:57:42.577Z,99.82
2019-05-07T07:00:13.392Z,99.67
2019-05-07T07:02:43.476Z,100.00
2019-05-07T07:05:13.760Z,95.83
2019-05-07T07:07:52.893Z,98.07
2019-05-07T07:10:22.998Z,88.28
2019-05-07T07:12:52.962Z,87.94
2019-05-07T07:15:23.198Z,88.57
2019-05-07T07:17:52.396Z,86.92
2019-05-07T07:20:21.853Z,86.08
2019-05-07T07:22:52.071Z,83.30
2019-05-07T07:25:22.737Z,82.88
2019-05-07T07:27:52.057Z,87.47
2019-05-07T07:30:22.546Z,82.23
2019-05-07T07:32:52.642Z,86.99
2019-05-07T07:35:22.580Z,83.54
2019-05-07T07:37:53.058Z,83.32
2019-05-07T07:40:32.721Z,78.41
2019-05-07T07:43:04.859Z,78.49
2019-05-07T07:45:32.416Z,75.66
2019-05-07T07:48:02.282Z,70.97
2019-05-07T07:50:33.046Z,72.10
2019-05-07T07:53:02.527Z,71.76
2019-05-07T07:55:33.059Z,66.69
2019-05-07T07:58:03.345Z,69.74
2019-05-07T08:00:36.674Z,64.57
2019-05-07T08:03:06.801Z,65.97
2019-05-07T08:05:35.283Z,72.57
2019-05-07T08:08:03.995Z,66.82
2019-05-07T08:10:32.700Z,65.19
2019-05-07T08:13:01.998Z,65.22
2019-05-07T08:15:32.867Z,66.32
2019-05-07T08:18:02.878Z,66.01
2019-05-07T08:20:32.656Z,62.06
2019-05-07T08:23:02.991Z,62.39
2019-05-07T08:25:49.467Z,66.73
2019-05-07T08:28:19.086Z,66.21
2019-05-07T08:31:05.677Z,67.72
2019-05-07T08:33:36.361Z,63.82
2019-05-07T08:36:08.863Z,60.71
2019-05-07T08:38:52.851Z,62.41
2019-05-07T08:41:22.589Z,62.25
2019-05-07T08:44:07.301Z,60.50
2019-05-07T08:46:37.084Z,61.21
2019-05-07T08:49:07.349Z,53.00
2019-05-07T08:51:35.875Z,55.65
2019-05-07T08:54:06.869Z,55.21
2019-05-07T08:56:36.710Z,57.06
2019-05-07T08:59:06.195Z,58.26
2019-05-07T09:01:36.646Z,59.35
2019-05-07T09:04:05.819Z,58.00
2019-05-07T09:06:34.351Z,53.43
2019-05-07T09:09:06.678Z,52.11
2019-05-07T09:11:35.189Z,53.17
2019-05-07T09:14:03.692Z,51.38
2019-05-07T09:16:32.162Z,53.64
2019-05-07T09:19:02.175Z,54.07
2019-05-07T09:21:32.213Z,52.88
2019-05-07T09:24:02.552Z,51.60
2019-05-07T09:26:32.971Z,51.95
2019-05-07T09:29:03.161Z,52.50
2019-05-07T09:31:36.243Z,52.85
2019-05-07T09:34:04.817Z,53.64
2019-05-07T09:36:34.931Z,50.71
2019-05-07T09:39:05.003Z,50.34
2019-05-07T09:41:33.450Z,51.38
2019-05-07T09:44:03.168Z,51.05
2019-05-07T09:46:32.535Z,53.14
2019-05-07T09:49:03.084Z,51.57
2019-05-07T09:51:32.294Z,49.59
2019-05-07T09:54:02.537Z,46.76
2019-05-07T09:56:31.975Z,45.12
2019-05-07T09:59:02.221Z,45.52
2019-05-07T10:01:31.932Z,44.46
2019-05-07T10:04:02.638Z,45.88
2019-05-07T10:06:32.051Z,47.15
2019-05-07T10:09:02.705Z,47.90
2019-05-07T10:11:35.404Z,47.37
2019-05-07T10:14:09.098Z,52.61
2019-05-07T10:16:45.205Z,51.75
2019-05-07T10:19:13.896Z,54.35
2019-05-07T10:21:42.588Z,52.01
2019-05-07T10:24:12.873Z,50.26
2019-05-07T10:26:42.857Z,47.31
2019-05-07T10:29:12.629Z,47.17
2019-05-07T10:31:42.412Z,45.93
2019-05-07T10:34:12.281Z,43.60
2019-05-07T10:36:42.155Z,42.97
2019-05-07T10:39:12.734Z,38.00
2019-05-07T10:41:42.496Z,37.71
2019-05-07T10:44:12.062Z,37.13
2019-05-07T10:46:42.325Z,38.89
2019-05-07T10:49:18.615Z,37.33
2019-05-07T10:51:47.195Z,38.95
2019-05-07T10:54:15.672Z,41.52
2019-05-07T10:56:44.214Z,45.59
2019-05-07T10:59:12.694Z,44.72
2019-05-07T11:01:45.314Z,42.14
2019-05-07T11:04:13.838Z,37.01
2019-05-07T11:06:42.331Z,35.10
2019-05-07T11:09:10.884Z,38.64
2019-05-07T11:11:39.375Z,40.88
2019-05-07T11:14:07.975Z,42.54
2019-05-07T11:16:38.170Z,43.50
2019-05-07T11:19:06.752Z,41.14
2019-05-07T11:21:35.260Z,41.30
2019-05-07T11:24:03.865Z,44.30
2019-05-07T11:26:32.973Z,41.76
2019-05-07T11:29:02.378Z,37.40
2019-05-07T11:31:36.682Z,32.94
2019-05-07T11:34:05.241Z,33.54
2019-05-07T11:36:34.465Z,29.60
2019-05-07T11:39:04.818Z,29.39
2019-05-07T11:41:47.177Z,29.17
2019-05-07T11:44:17.292Z,28.08
2019-05-07T11:47:03.571Z,30.66
2019-05-07T11:49:49.929Z,28.80
2019-05-07T11:52:19.272Z,30.22
2019-05-07T11:54:47.735Z,32.01
2019-05-07T11:57:16.222Z,32.30
2019-05-07T11:59:44.646Z,31.21
2019-05-07T12:02:13.224Z,32.28
2019-05-07T12:04:42.214Z,32.87
2019-05-07T12:07:11.893Z,34.70
2019-05-07T12:09:40.532Z,30.90
2019-05-07T12:12:09.076Z,29.05
2019-05-07T12:14:37.520Z,29.24
2019-05-07T12:17:06.081Z,29.64
2019-05-07T12:19:34.604Z,31.02
2019-05-07T12:22:04.179Z,31.35
2019-05-07T12:24:32.906Z,28.49
2019-05-07T12:27:02.669Z,24.47
2019-05-07T12:29:32.259Z,25.99
2019-05-07T12:32:18.872Z,22.96
2019-05-07T12:34:48.979Z,25.20
2019-05-07T12:37:17.442Z,24.21
2019-05-07T12:39:45.903Z,24.13
2019-05-07T12:42:14.351Z,23.04
2019-05-07T12:44:43.356Z,25.74
2019-05-07T12:47:12.161Z,23.36
2019-05-07T12:49:42.739Z,22.76
2019-05-07T12:52:12.773Z,21.48
2019-05-07T12:54:48.633Z,23.41
2019-05-07T12:57:17.175Z,22.25
2019-05-07T12:59:45.619Z,22.66
2019-05-07T13:02:38.113Z,21.93
2019-05-07T13:05:02.947Z,23.10
2019-05-07T13:07:33.350Z,21.86
2019-05-07T13:10:02.640Z,21.04
2019-05-07T13:12:32.169Z,19.89
2019-05-07T13:15:02.997Z,20.32
2019-05-07T13:17:31.088Z,21.03
2019-05-07T13:20:01.617Z,24.64
2019-05-07T13:22:29.767Z,21.48
2019-05-07T13:24:58.291Z,22.61
2019-05-07T13:27:26.763Z,24.71
2019-05-07T13:29:55.293Z,21.40
2019-05-07T13:32:24.912Z,20.58
2019-05-07T13:34:54.007Z,20.74
2019-05-07T13:37:24.516Z,23.14
2019-05-07T13:39:54.847Z,22.66
2019-05-07T13:42:43.502Z,22.47
2019-05-07T13:45:13.199Z,21.96
2019-05-07T13:47:41.667Z,27.70
2019-05-07T13:50:11.917Z,26.89
2019-05-07T13:52:43.148Z,23.52
2019-05-07T13:55:12.953Z,21.37
2019-05-07T13:57:41.707Z,23.83
2019-05-07T14:00:12.974Z,26.38
2019-05-07T14:02:42.176Z,26.58
2019-05-07T14:05:13.985Z,28.64
2019-05-07T14:07:43.246Z,28.96
2019-05-07T14:10:12.705Z,28.99
2019-05-07T14:12:42.537Z,28.65
2019-05-07T14:15:12.551Z,26.73
2019-05-07T14:17:41.198Z,24.51
2019-05-07T14:20:09.710Z,22.59
2019-05-07T14:22:38.163Z,22.54
2019-05-07T14:25:07.677Z,26.66
2019-05-07T14:27:36.147Z,22.19
2019-05-07T14:30:07.389Z,21.99
2019-05-07T14:32:53.448Z,25.43
2019-05-07T14:35:23.553Z,28.02
2019-05-07T14:37:56.369Z,27.94
2019-05-07T14:40:25.162Z,31.69
2019-05-07T14:42:58.372Z,32.05
2019-05-07T14:45:26.847Z,31.57
2019-05-07T14:47:55.397Z,32.11
2019-05-07T14:50:23.916Z,32.63
2019-05-07T14:52:55.221Z,34.12
2019-05-07T14:55:22.679Z,32.59
2019-05-07T14:57:52.433Z,31.65
2019-05-07T15:00:22.548Z,32.89
2019-05-07T15:02:52.477Z,34.64
2019-05-07T15:05:22.360Z,36.30
2019-05-07T15:07:51.191Z,35.83
2019-05-07T15:10:22.021Z,33.22
2019-05-07T15:12:52.197Z,34.33
2019-05-07T15:15:21.931Z,37.12
2019-05-07T15:18:04.079Z,36.73
2019-05-07T15:20:33.122Z,37.20
2019-05-07T15:23:04.699Z,38.27
2019-05-07T15:25:33.183Z,37.79
2019-05-07T15:28:01.915Z,37.04
2019-05-07T15:30:32.579Z,36.72
2019-05-07T15:33:02.262Z,38.05
2019-05-07T15:35:32.029Z,37.17
2019-05-07T15:38:02.493Z,38.43
2019-05-07T15:40:32.950Z,37.64
2019-05-07T15:43:02.157Z,35.95
2019-05-07T15:45:31.037Z,35.13
2019-05-07T15:47:59.507Z,37.92
2019-05-07T15:50:32.246Z,34.56
2019-05-07T15:53:05.693Z,37.66
2019-05-07T15:55:34.233Z,35.77
2019-05-07T15:58:02.897Z,33.58
2019-05-07T16:00:33.590Z,34.56
2019-05-07T16:03:06.611Z,35.38
2019-05-07T16:05:35.228Z,38.34
2019-05-07T16:08:04.751Z,39.82
2019-05-07T16:10:33.306Z,36.99
2019-05-07T16:13:01.930Z,36.57
2019-05-07T16:15:31.978Z,35.42
2019-05-07T16:18:02.894Z,34.90
2019-05-07T16:20:32.602Z,34.53
2019-05-07T16:23:14.418Z,36.22
2019-05-07T16:25:33.240Z,38.84
2019-05-07T16:28:04.750Z,35.96
2019-05-07T16:30:32.419Z,37.95
2019-05-07T16:33:02.119Z,37.07
2019-05-07T16:35:32.039Z,38.16
2019-05-07T16:38:00.773Z,36.83
2019-05-07T16:40:29.255Z,37.65
2019-05-07T16:42:57.739Z,38.52
2019-05-07T16:45:26.185Z,39.76
2019-05-07T16:47:54.789Z,41.83
2019-05-07T16:50:23.443Z,39.46
2019-05-07T16:52:52.517Z,38.11
2019-05-07T16:55:23.109Z,38.03
2019-05-07T16:58:01.903Z,37.98
2019-05-07T17:00:34.877Z,38.20
2019-05-07T17:03:05.058Z,37.89
2019-05-07T17:05:33.522Z,38.49
2019-05-07T17:08:03.753Z,38.75
2019-05-07T17:10:32.217Z,39.89
2019-05-07T17:13:02.779Z,38.05
2019-05-07T17:15:31.344Z,41.14
2019-05-07T17:17:59.819Z,41.02
2019-05-07T17:20:28.553Z,40.01
2019-05-07T17:22:57.765Z,40.99
2019-05-07T17:25:38.287Z,40.49
2019-05-07T17:28:12.472Z,39.89
2019-05-07T17:30:42.074Z,42.25
2019-05-07T17:33:12.605Z,42.39
2019-05-07T17:35:42.363Z,39.38
2019-05-07T17:38:12.887Z,40.40
2019-05-07T17:40:42.396Z,46.66
2019-05-07T17:43:12.317Z,45.55
2019-05-07T17:45:42.814Z,45.80
2019-05-07T17:48:12.334Z,45.75
2019-05-07T17:50:45.605Z,48.53
2019-05-07T17:53:14.167Z,47.36
2019-05-07T17:55:42.809Z,49.54
2019-05-07T17:58:12.920Z,51.96
2019-05-07T18:00:43.864Z,50.99
2019-05-07T18:03:32.667Z,49.71
2019-05-07T18:06:02.416Z,48.41
2019-05-07T18:08:32.534Z,50.64
2019-05-07T18:11:02.517Z,53.15
2019-05-07T18:13:32.265Z,55.58
2019-05-07T18:16:02.947Z,56.62
2019-05-07T18:18:32.745Z,57.04
2019-05-07T18:21:02.427Z,57.79
2019-05-07T18:23:32.451Z,57.50
2019-05-07T18:26:01.016Z,58.33
2019-05-07T18:28:29.786Z,57.89
2019-05-07T18:30:59.015Z,61.32
2019-05-07T18:33:33.599Z,61.00
2019-05-07T18:36:02.851Z,61.97
2019-05-07T18:38:32.911Z,65.13
2019-05-07T18:41:02.850Z,62.20
2019-05-07T18:43:33.245Z,60.41
2019-05-07T18:46:02.327Z,60.31
2019-05-07T18:48:31.411Z,61.67
2019-05-07T18:51:00.047Z,64.54
2019-05-07T18:53:28.535Z,65.38
2019-05-07T18:55:57.109Z,65.89
2019-05-07T18:58:25.722Z,65.66
2019-05-07T19:00:55.871Z,66.59
2019-05-07T19:03:25.463Z,66.82
2019-05-07T19:05:55.351Z,67.38
2019-05-07T19:08:23.842Z,68.57
2019-05-07T19:10:52.356Z,68.87
2019-05-07T19:13:22.216Z,71.25
2019-05-07T19:15:53.014Z,71.38
2019-05-07T19:18:22.795Z,72.03
2019-05-07T19:20:52.984Z,75.50
2019-05-07T19:23:22.304Z,77.48
2019-05-07T19:25:52.233Z,78.26
2019-05-07T19:28:22.430Z,79.19
2019-05-07T19:30:52.825Z,81.20
2019-05-07T19:33:26.715Z,80.40
2019-05-07T19:35:52.937Z,80.12
2019-05-07T19:38:21.459Z,79.12
2019-05-07T19:40:50.043Z,79.75
2019-05-07T19:43:18.487Z,80.65
2019-05-07T19:45:47.210Z,81.23
2019-05-07T19:48:15.643Z,81.80
2019-05-07T19:50:44.135Z,83.82
2019-05-07T19:53:12.686Z,85.22
2019-05-07T19:56:01.885Z,84.02
2019-05-07T19:58:29.665Z,84.74
2019-05-07T20:00:58.297Z,84.72
2019-05-07T20:03:26.779Z,86.15
2019-05-07T20:05:55.262Z,86.71
2019-05-07T20:08:23.737Z,87.10
2019-05-07T20:10:59.844Z,88.51
2019-05-07T20:13:28.343Z,89.08
2019-05-07T20:16:02.869Z,90.65
2019-05-07T20:18:32.657Z,92.26
2019-05-07T20:21:02.711Z,92.38
2019-05-07T20:23:40.209Z,94.17
2019-05-07T20:26:08.995Z,96.32
2019-05-07T20:28:37.570Z,98.33
2019-05-07T20:31:06.276Z,99.19
2019-05-07T20:33:34.789Z,100.00
2019-05-07T20:36:03.907Z,100.00
2019-05-07T20:38:32.354Z,100.00
2019-05-07T20:41:02.069Z,100.00
2019-05-07T20:43:32.603Z,100.00
2019-05-07T20:46:02.625Z,100.00
2019-05-07T20:48:32.488Z,100.00
2019-05-07T20:51:01.537Z,100.00
2019-05-07T20:53:48.083Z,100.00
2019-05-07T20:56:18.267Z,100.00
2019-05-07T20:58:46.706Z,100.00
2019-05-07T21:01:15.260Z,100.00
2019-05-07T21:03:43.814Z,100.00
2019-05-07T21:06:12.308Z,100.00
2019-05-07T21:08:42.731Z,100.00
2019-05-07T21:11:11.937Z,100.00
2019-05-07T21:13:44.091Z,100.00
2019-05-07T21:16:12.678Z,100.00
2019-05-07T21:18:42.128Z,100.00
2019-05-07T21:21:12.495Z,100.00
2019-05-07T21:23:43.184Z,100.00
2019-05-07T21:26:13.093Z,100.00
2019-05-07T21:28:43.142Z,100.00
2019-05-07T21:31:12.187Z,100.00
2019-05-07T21:33:42.836Z,100.00
2019-05-07T21:36:12.124Z,100.00
2019-05-07T21:38:42.530Z,100.00
2019-05-07T21:41:12.890Z,100.00
2019-05-07T21:43:44.240Z,100.00
2019-05-07T21:46:12.833Z,100.00
2019-05-07T21:48:41.637Z,100.00
2019-05-07T21:51:12.249Z,100.00
2019-05-07T21:53:42.971Z,100.00
2019-05-07T21:56:31.378Z,100.00
2019-05-07T21:59:03.041Z,100.00
2019-05-07T22:01:35.832Z,100.00
2019-05-07T22:04:04.673Z,100.00
2019-05-07T22:06:33.144Z,100.00
2019-05-07T22:09:02.139Z,100.00
2019-05-07T22:11:32.289Z,100.00
2019-05-07T22:14:02.099Z,100.00
2019-05-07T22:16:32.799Z,100.00
2019-05-07T22:19:02.691Z,100.00
2019-05-07T22:21:33.961Z,100.00
2019-05-07T22:24:03.030Z,100.00
2019-05-07T22:26:32.346Z,100.00
2019-05-07T22:29:03.144Z,100.00
2019-05-07T22:31:32.839Z,100.00
2019-05-07T22:34:19.193Z,100.00
2019-05-07T22:36:47.681Z,100.00
2019-05-07T22:39:16.136Z,100.00
2019-05-07T22:41:44.646Z,100.00
2019-05-07T22:44:13.087Z,100.00
2019-05-07T22:46:42.302Z,100.00
2019-05-07T22:49:12.247Z,100.00
2019-05-07T22:51:40.982Z,100.00
2019-05-07T22:54:11.707Z,100.00
2019-05-07T22:56:59.620Z,100.00
2019-05-07T22:59:28.220Z,100.00
2019-05-07T23:01:56.665Z,100.00
2019-05-07T23:04:25.187Z,100.00
2019-05-07T23:06:53.642Z,100.00
2019-05-07T23:09:22.633Z,100.00
2019-05-07T23:11:52.651Z,100.00
2019-05-07T23:14:22.546Z,100.00
2019-05-07T23:16:54.963Z,100.00
2019-05-07T23:19:22.068Z,100.00
2019-05-07T23:21:52.130Z,100.00
2019-05-07T23:24:22.661Z,100.00
2019-05-07T23:26:53.292Z,100.00
2019-05-07T23:29:22.544Z,100.00
2019-05-07T23:31:52.962Z,100.00
2019-05-07T23:34:22.160Z,100.00
2019-05-07T23:36:53.300Z,100.00
2019-05-07T23:39:22.869Z,100.00
2019-05-07T23:41:52.969Z,100.00
2019-05-07T23:44:22.858Z,100.00
2019-05-07T23:46:52.062Z,100.00
2019-05-07T23:49:22.977Z,100.00
2019-05-07T23:51:52.804Z,100.00
2019-05-07T23:54:22.938Z,100.00
2019-05-07T23:57:05.391Z,100.00
2019-05-07T23:59:22.142Z,100.00
